Thunder radar more information blitzortung!


Radar de pluja more information rain snow radar


Visita la nostra xarxa de llocs de meteo:

Template documentation
and downloads

And another site



No particular awareness of the weather is required.    There are no Weather-warnings

Pagina Historial Weather Underground text

Diari Resum Juny 8, 2016 Unitats:  Mètric    Imperial   Tant
« Previous Dia
SegĂźent Dia »
Diari Setmana Mensual Anual Personalitzada
  Maxima: Minima: Media:
Temperatura: -17.8 °C -8.7 °C -3.6 °C
Punt de rosada: -17.8 °C -11.6 °C -10.3 °C
Humitat: Humidity % 38 % 48 %
Wind Speed: 0 km/h 0 km/h 7.9 km/h
RĂ fegues de vent: 0 km/h - -
Vent:- - SW
Pression baro: 0 hPa 34361.1 hPa -
Precipitacions: 0 mm    
Historical Graphs
 
 
Dades de taula per Juny 8, 2016
Temps Temperatura Punt de rosada Pression baro Vent Wind Speed RĂ fegues de vent Humitat Rainfall Rate (Hourly)
-17.8 °C -17.8 °C 0 hPa Calm     Humidity % 0 mm
00:00 -6.2 °C -11.6 °C 34567.7 hPa SSW 3.1 km/h   54 % 0 mm
00:05 -6.2 °C -11.6 °C 34601.5 hPa SSW 3.1 km/h   54 % 0 mm
00:25 -8.3 °C -10.9 °C 34533.8 hPa WSW 5.1 km/h 7.7 km/h 74 % 0 mm
00:35 -8.4 °C -10.8 °C 34533.8 hPa WSW 5.1 km/h 7.7 km/h 76 % 0 mm
00:45 -8.3 °C -10.9 °C 34533.8 hPa WSW 5.1 km/h 7.7 km/h 74 % 0 mm
00:55 -8.3 °C -10.8 °C 34533.8 hPa WSW 5.1 km/h 7.7 km/h 75 % 0 mm
01:05 -8.3 °C -10.8 °C 34533.8 hPa WSW 5.1 km/h 7.7 km/h 75 % 0 mm
01:15 -8.4 °C -11.1 °C 34533.8 hPa WSW 5.1 km/h 7.7 km/h 74 % 0 mm
01:25 -8.6 °C -11 °C 34533.8 hPa WSW 5.1 km/h 7.7 km/h 75 % 0 mm
01:35 -8.6 °C -11.1 °C 34533.8 hPa WSW 5.1 km/h 7.7 km/h 75 % 0 mm
01:45 -8.7 °C -11.3 °C 34533.8 hPa WSW 5.1 km/h 7.7 km/h 74 % 0 mm
02:05 -8.6 °C -11.2 °C 34567.7 hPa WSW 5.1 km/h 7.7 km/h 74 % 0 mm
02:15 -8.4 °C -11.2 °C 34567.7 hPa WSW 5.1 km/h 7.7 km/h 73 % 0 mm
02:25 -8.4 °C -11.1 °C 34533.8 hPa WSW 5.1 km/h 7.7 km/h 73 % 0 mm
02:35 -8.1 °C -11.1 °C 34533.8 hPa WSW 5.1 km/h 7.7 km/h 71 % 0 mm
02:45 -8 °C -11.1 °C 34533.8 hPa WSW 5.1 km/h 7.7 km/h 70 % 0 mm
02:55 -7.9 °C -10.9 °C 34533.8 hPa WSW 5.1 km/h 7.7 km/h 70 % 0 mm
03:05 -7.4 °C -10.6 °C 34567.7 hPa WSW 5.1 km/h 7.7 km/h 70 % 0 mm
03:15 -7.2 °C -10.7 °C 34567.7 hPa WSW 5.1 km/h 7.7 km/h 67 % 0 mm
03:25 -7.1 °C -10.7 °C 34533.8 hPa WSW 5.1 km/h 7.7 km/h 66 % 0 mm
03:35 -6.9 °C -10.6 °C 34533.8 hPa WSW 5.1 km/h 7.7 km/h 66 % 0 mm
03:45 -6.8 °C -10.5 °C 34533.8 hPa WSW 5.1 km/h 7.7 km/h 65 % 0 mm
03:55 -6.6 °C -10.7 °C 34567.7 hPa WSW 5.1 km/h 7.7 km/h 63 % 0 mm
04:05 -6.3 °C -10.4 °C 34567.7 hPa WSW 5.1 km/h 7.7 km/h 62 % 0 mm
04:15 -5.9 °C -10.2 °C 34567.7 hPa WSW 5.1 km/h 7.7 km/h 61 % 0 mm
04:25 -5.6 °C -10.2 °C 34567.7 hPa WSW 5.1 km/h 7.7 km/h 59 % 0 mm
04:35 -5.4 °C -10.2 °C 34567.7 hPa WSW 5.1 km/h 7.7 km/h 58 % 0 mm
04:45 -4.9 °C -9.9 °C 34567.7 hPa WSW 5.1 km/h 7.7 km/h 57 % 0 mm
04:55 -4.4 °C -9.7 °C 34567.7 hPa WSW 5.1 km/h 7.7 km/h 55 % 0 mm
05:05 -4.4 °C -10.1 °C 34533.8 hPa WSW 5.1 km/h 7.7 km/h 53 % 0 mm
05:15 -4.3 °C -10.3 °C 34533.8 hPa WSW 5.1 km/h 7.7 km/h 51 % 0 mm
05:25 -3.9 °C -10.1 °C 34533.8 hPa WSW 5.1 km/h 7.7 km/h 50 % 0 mm
05:35 -3.8 °C -10.4 °C 34496.6 hPa WSW 5.1 km/h 7.7 km/h 48 % 0 mm
05:45 -3.4 °C -10.1 °C 34496.6 hPa WSW 5.1 km/h 7.7 km/h 48 % 0 mm
05:55 -3.2 °C -9.8 °C 34496.6 hPa WSW 5.1 km/h 7.7 km/h 48 % 0 mm
10:59 -3 °C -9.8 °C 34496.6 hPa SSW 6 km/h 6 km/h 47 % 0 mm
11:04 -2.9 °C -9.7 °C 34496.6 hPa SSW 3.1 km/h 5.6 km/h 47 % 0 mm
11:09 -2.6 °C -9.6 °C 34496.6 hPa SSW 3.1 km/h 5.6 km/h 46 % 0 mm
11:14 -2.5 °C -9.7 °C 34496.6 hPa SSW 3.1 km/h 5.6 km/h 45 % 0 mm
11:19 -2.6 °C -10 °C 34496.6 hPa SSW 3.1 km/h 5.6 km/h 44 % 0 mm
11:24 -2.2 °C -9.5 °C 34496.6 hPa SSW 3.1 km/h 5.6 km/h 45 % 0 mm
11:29 -2 °C -9.5 °C 34496.6 hPa SSW 3.1 km/h 5.6 km/h 44 % 0 mm
11:34 -1.9 °C -9.3 °C 34462.7 hPa SSW 3.1 km/h 5.6 km/h 44 % 0 mm
11:39 -1.7 °C -9.6 °C 34462.7 hPa SSW 3.1 km/h 5.6 km/h 42 % 0 mm
11:49 -1.8 °C -10.1 °C 34462.7 hPa SSW 3.1 km/h 5.6 km/h 40 % 0 mm
11:54 -1.8 °C -9.9 °C 34462.7 hPa SSW 3.1 km/h 5.6 km/h 41 % 0 mm
11:59 -1.7 °C -10.1 °C 34462.7 hPa SSW 3.1 km/h 5.6 km/h 40 % 0 mm
12:04 -1.5 °C -10.3 °C 34462.7 hPa SSW 3.1 km/h 5.6 km/h 38 % 0 mm
12:14 -1.4 °C -10.2 °C 34462.7 hPa SSW 3.1 km/h 5.6 km/h 38 % 0 mm
12:19 -1.3 °C -10.1 °C 34462.7 hPa SSW 3.1 km/h 5.6 km/h 38 % 0 mm
12:24 -1.6 °C -10.2 °C 34462.7 hPa SSW 3.1 km/h 5.6 km/h 39 % 0 mm
12:29 -1.7 °C -10.1 °C 34462.7 hPa SSW 3.1 km/h 5.6 km/h 40 % 0 mm
12:34 -1.8 °C -9.9 °C 34462.7 hPa SSW 3.1 km/h 5.6 km/h 41 % 0 mm
12:44 -1.8 °C -9.9 °C 34462.7 hPa SSW 3.1 km/h 5.6 km/h 41 % 0 mm
12:49 -1.7 °C -9.8 °C 34462.7 hPa SSW 3.1 km/h 5.6 km/h 41 % 0 mm
12:54 -1.9 °C -10.1 °C 34462.7 hPa SSW 3.1 km/h 5.6 km/h 41 % 0 mm
12:59 -1.8 °C -9.9 °C 34462.7 hPa SSW 3.1 km/h 5.6 km/h 41 % 0 mm
13:04 -1.7 °C -9.9 °C 34428.8 hPa SSW 3.1 km/h 5.6 km/h 40 % 0 mm
13:09 -1.8 °C -9.7 °C 34428.8 hPa SSW 3.1 km/h 5.6 km/h 42 % 0 mm
13:14 -1.9 °C -9.8 °C 34428.8 hPa SSW 3.1 km/h 5.6 km/h 42 % 0 mm
13:19 -1.8 °C -9.7 °C 34428.8 hPa SSW 3.1 km/h 5.6 km/h 42 % 0 mm
13:24 -1.7 °C -9.6 °C 34428.8 hPa SSW 3.1 km/h 5.6 km/h 42 % 0 mm
13:29 -1.7 °C -9.8 °C 34428.8 hPa SSW 3.1 km/h 5.6 km/h 41 % 0 mm
13:34 -1.8 °C -9.7 °C 34428.8 hPa SSW 3.1 km/h 5.6 km/h 42 % 0 mm
13:39 -1.9 °C -9.8 °C 34428.8 hPa SSW 3.1 km/h 5.6 km/h 42 % 0 mm
13:49 -1.9 °C -9.6 °C 34428.8 hPa SSW 3.1 km/h 5.6 km/h 43 % 0 mm
13:59 -1.7 °C -9.4 °C 34428.8 hPa SSW 3.1 km/h 5.6 km/h 43 % 0 mm
14:09 -1.3 °C -9.3 °C 34428.8 hPa SSW 3.1 km/h 5.6 km/h 42 % 0 mm
14:14 -1.1 °C -9 °C 34428.8 hPa SSW 3.1 km/h 5.6 km/h 42 % 0 mm
14:19 -0.8 °C -9 °C 34395 hPa SSW 3.1 km/h 5.6 km/h 41 % 0 mm
14:24 -0.4 °C -8.8 °C 34395 hPa SSW 3.1 km/h 5.6 km/h 40 % 0 mm
14:29 -0.4 °C -8.8 °C 34395 hPa SSW 3.1 km/h 5.6 km/h 40 % 0 mm
14:34 -0.6 °C -9.2 °C 34395 hPa SSW 3.1 km/h 5.6 km/h 39 % 0 mm
14:39 -0.7 °C -9.1 °C 34395 hPa SSW 3.1 km/h 5.6 km/h 40 % 0 mm
14:44 -0.8 °C -9.4 °C 34395 hPa SSW 3.1 km/h 5.6 km/h 39 % 0 mm
14:49 -0.7 °C -9.1 °C 34395 hPa SSW 3.1 km/h 5.6 km/h 40 % 0 mm
14:54 -1.1 °C -9.4 °C 34395 hPa SSW 3.1 km/h 5.6 km/h 40 % 0 mm
14:59 -0.8 °C -9.2 °C 34395 hPa SW 20.3 km/h 20.3 km/h 40 % 0 mm
15:04 -0.4 °C -9.1 °C 34395 hPa SSW 15 km/h 15 km/h 39 % 0 mm
15:09 -0.4 °C -9.1 °C 34395 hPa WSW 20.9 km/h 20.9 km/h 39 % 0 mm
15:14 -0.9 °C -9.3 °C 34395 hPa South 17.9 km/h 17.9 km/h 40 % 0 mm
15:19 -0.8 °C -9.2 °C 34395 hPa South 20.9 km/h 20.9 km/h 40 % 0 mm
15:24 -0.6 °C -9.1 °C 34395 hPa South 20.9 km/h 20.9 km/h 40 % 0 mm
15:29 -0.7 °C -9.1 °C 34361.1 hPa WSW 11.9 km/h 11.9 km/h 40 % 0 mm
15:34 -0.5 °C -9.2 °C 34361.1 hPa SW 9.8 km/h 9.8 km/h 39 % 0 mm
15:44 -1.1 °C -9.7 °C 34361.1 hPa SSW 26.9 km/h 26.9 km/h 39 % 0 mm
15:49 -0.7 °C -9.3 °C 34395 hPa WSW 15.6 km/h 15.6 km/h 39 % 0 mm
15:54 -0.9 °C -9.3 °C 34395 hPa SW 17.9 km/h 17.9 km/h 40 % 0 mm
15:59 -1 °C -9.6 °C 34395 hPa SW 9.3 km/h 9.3 km/h 39 % 0 mm
16:04 -0.6 °C -9.3 °C 34395 hPa SSW 15 km/h 15 km/h 39 % 0 mm
16:09 -0.7 °C -9.3 °C 34395 hPa SW 15 km/h 15 km/h 39 % 0 mm
16:14 -0.7 °C -9.3 °C 34395 hPa West 19.6 km/h 19.6 km/h 39 % 0 mm
16:19 -0.9 °C -9.5 °C 34395 hPa SW 20.9 km/h 20.9 km/h 39 % 0 mm
16:24 -0.9 °C -9.5 °C 34395 hPa West 15 km/h 15 km/h 39 % 0 mm
16:29 -0.6 °C -9.4 °C 34395 hPa SW 11.9 km/h 11.9 km/h 38 % 0 mm
16:35 -0.8 °C -9.4 °C 34395 hPa South 9 km/h 9 km/h 39 % 0 mm
16:40 -0.7 °C -9.3 °C 34395 hPa WSW 17.9 km/h 17.9 km/h 39 % 0 mm
16:45 -1.1 °C -9.7 °C 34395 hPa SSW 17.9 km/h 17.9 km/h 39 % 0 mm
16:50 -1.2 °C -9.8 °C 34395 hPa SW 15 km/h 15 km/h 39 % 0 mm
16:55 -1.2 °C -9.8 °C 34395 hPa SW 26.9 km/h 26.9 km/h 39 % 0 mm
17:00 -1.3 °C -9.8 °C 34395 hPa SW 23.8 km/h 23.8 km/h 39 % 0 mm
17:05 -1.2 °C -9.8 °C 34395 hPa WSW 17.9 km/h 17.9 km/h 39 % 0 mm
17:10 -1.1 °C -9.7 °C 34395 hPa SSW 15 km/h 15 km/h 39 % 0 mm
17:15 -1 °C -9.6 °C 34395 hPa SSW 15 km/h 15 km/h 39 % 0 mm
17:20 -1.4 °C -10 °C 34395 hPa WSW 26.9 km/h 26.9 km/h 39 % 0 mm
17:25 -1.3 °C -9.9 °C 34395 hPa SW 20.9 km/h 20.9 km/h 39 % 0 mm
17:30 -1.4 °C -9.9 °C 34395 hPa SW 15 km/h 15 km/h 39 % 0 mm
17:40 -1.7 °C -10.2 °C 34395 hPa SW 26.9 km/h 26.9 km/h 39 % 0 mm
17:45 -1.6 °C -10.2 °C 34395 hPa SW 16.6 km/h 16.6 km/h 39 % 0 mm
17:50 -1.4 °C -10 °C 34395 hPa SSW 22.5 km/h 22.5 km/h 39 % 0 mm
17:55 -1.7 °C -10.1 °C 34395 hPa SW 12.9 km/h 31.1 km/h 40 % 0 mm
18:05 -1.6 °C -9.9 °C 34395 hPa West 15 km/h 15 km/h 40 % 0 mm
18:10 -1.5 °C -9.8 °C 34395 hPa SW 12.9 km/h 18.2 km/h 40 % 0 mm
18:15 -1.5 °C -9.8 °C 34395 hPa SW 7.7 km/h 20.8 km/h 40 % 0 mm
18:20 -1.7 °C -9.8 °C 34361.1 hPa SW 15.6 km/h 25.9 km/h 41 % 0 mm
18:25 -1.9 °C -10 °C 34361.1 hPa SW 15.6 km/h 25.9 km/h 41 % 0 mm
18:30 -1.9 °C -9.9 °C 34361.1 hPa SW 12.9 km/h 23.3 km/h 41 % 0 mm
18:40 -2 °C -10.1 °C 34361.1 hPa SW 12.9 km/h 20.8 km/h 41 % 0 mm
18:45 -2.1 °C -9.9 °C 34371.3 hPa SW 7.7 km/h 18.2 km/h 42 % 0 mm
18:55 -2.2 °C -10.2 °C 34395 hPa SW 12.9 km/h 20.8 km/h 41 % 0 mm
19:00 -2.4 °C -10.4 °C 34395 hPa SW 12.9 km/h 25.9 km/h 41 % 0 mm
19:05 -2.3 °C -10.4 °C 34361.1 hPa SW 12.9 km/h 15.6 km/h 41 % 0 mm
19:10 -2.4 °C -10.4 °C 34361.1 hPa SW 15.6 km/h 23.3 km/h 41 % 0 mm
19:15 -2.6 °C -10.6 °C 34361.1 hPa SW 5.1 km/h 23.3 km/h 41 % 0 mm
19:20 -2.6 °C -10.4 °C 34361.1 hPa SW 5.1 km/h 20.8 km/h 42 % 0 mm
19:25 -2.7 °C -10.5 °C 34361.1 hPa SW 7.7 km/h 20.8 km/h 42 % 0 mm
19:30 -2.7 °C -10.6 °C 34361.1 hPa SW 7.7 km/h 18.2 km/h 42 % 0 mm
19:35 -2.9 °C -10.5 °C 34361.1 hPa SW 7.7 km/h 18.2 km/h 43 % 0 mm
19:40 -2.9 °C -10.4 °C 34361.1 hPa SW 7.7 km/h 12.9 km/h 43 % 0 mm
19:45 -3 °C -10.6 °C 34361.1 hPa SW 12.9 km/h 15.6 km/h 43 % 0 mm
19:50 -3.1 °C -10.4 °C 34361.1 hPa SW 2.6 km/h 12.9 km/h 44 % 0 mm
19:55 -3.2 °C -10.5 °C 34361.1 hPa SW 5.1 km/h 12.9 km/h 44 % 0 mm
20:00 -3.3 °C -10.6 °C 34361.1 hPa SW 7.7 km/h 15.6 km/h 44 % 0 mm
20:05 -3.4 °C -10.7 °C 34361.1 hPa SW 5.1 km/h 12.9 km/h 44 % 0 mm
20:10 -3.4 °C -10.8 °C 34361.1 hPa SW 7.7 km/h 12.9 km/h 44 % 0 mm
20:15 -6.6 °C -10.6 °C 34395 hPa WSW 5.1 km/h 7.7 km/h 63 % 0 mm
20:20 -3.8 °C -10.9 °C 34361.1 hPa SSW 7.7 km/h 10.3 km/h 45 % 0 mm
20:25 -3.9 °C -10.8 °C 34361.1 hPa SW 16.1 km/h 16.1 km/h 46 % 0 mm
20:30 -4 °C -10.7 °C 34361.1 hPa SW 7.7 km/h 15.6 km/h 47 % 0 mm
20:35 -4.1 °C -10.7 °C 34361.1 hPa SW 12.9 km/h 12.9 km/h 48 % 0 mm
20:40 -4.2 °C -10.7 °C 34361.1 hPa SW 5.1 km/h 7.7 km/h 48 % 0 mm
20:45 -4.3 °C -10.6 °C 34361.1 hPa SSW 12.9 km/h 12.9 km/h 49 % 0 mm
20:50 -4.4 °C -10.7 °C 34361.1 hPa SSW 12.9 km/h 12.9 km/h 49 % 0 mm
20:55 -4.4 °C -10.6 °C 34361.1 hPa SW 7.7 km/h 7.7 km/h 50 % 0 mm
21:00 -4.5 °C -10.7 °C 34361.1 hPa WSW 5.1 km/h 7.7 km/h 50 % 0 mm
21:05 -4.6 °C -10.7 °C 34361.1 hPa SW 5.1 km/h 5.1 km/h 50 % 0 mm
21:10 -4.6 °C -10.7 °C 34361.1 hPa SW 5.1 km/h 7.7 km/h 50 % 0 mm
21:15 -4.7 °C -10.8 °C 34361.1 hPa SW 5.1 km/h 7.7 km/h 50 % 0 mm
21:20 -4.7 °C -10.8 °C 34361.1 hPa SW 5.1 km/h 7.7 km/h 50 % 0 mm
21:25 -4.7 °C -10.9 °C 34361.1 hPa SW 5.1 km/h 7.7 km/h 50 % 0 mm
21:30 -4.8 °C -10.9 °C 34361.1 hPa SW 5.1 km/h 7.7 km/h 50 % 0 mm
21:35 -4.8 °C -10.8 °C 34361.1 hPa SW 5.1 km/h 7.7 km/h 51 % 0 mm
21:40 -4.9 °C -10.8 °C 34361.1 hPa SW 5.1 km/h 7.7 km/h 51 % 0 mm
21:45 -4.9 °C -10.9 °C 34361.1 hPa SW 5.1 km/h 7.7 km/h 51 % 0 mm
21:50 -5 °C -10.9 °C 34361.1 hPa SW 9 km/h 9 km/h 51 % 0 mm
21:55 -7.4 °C -10.6 °C 34361.1 hPa Calm     69 % 0 mm
22:00 -5.1 °C -10.7 °C 34361.1 hPa SW 5.1 km/h 7.7 km/h 53 % 0 mm
22:05 -5.2 °C -10.8 °C 34361.1 hPa SW 5.1 km/h 7.7 km/h 53 % 0 mm
22:10 -5.2 °C -10.8 °C 34361.1 hPa SW 5.1 km/h 7.7 km/h 53 % 0 mm
22:15 -5.3 °C -10.9 °C 34361.1 hPa SW 5.1 km/h 7.7 km/h 53 % 0 mm
22:20 -5.3 °C -10.8 °C 34361.1 hPa SW 5.1 km/h 7.7 km/h 54 % 0 mm
22:25 -5.4 °C -10.8 °C 34361.1 hPa SW 5.1 km/h 7.7 km/h 54 % 0 mm
22:30 -5.4 °C -10.9 °C 34371.3 hPa SW 5.1 km/h 7.7 km/h 54 % 0 mm
22:35 -5.5 °C -10.9 °C 34395 hPa SW 5.1 km/h 7.7 km/h 54 % 0 mm
22:40 -5.6 °C -10.9 °C 34395 hPa SW 5.1 km/h 7.7 km/h 54 % 0 mm
22:45 -5.6 °C -10.9 °C 34395 hPa SW 5.1 km/h 7.7 km/h 55 % 0 mm
22:50 -5.6 °C -10.9 °C 34395 hPa SW 5.1 km/h 7.7 km/h 55 % 0 mm
22:55 -5.7 °C -10.9 °C 34395 hPa SW 9 km/h 9 km/h 55 % 0 mm
23:00 -5.7 °C -10.9 °C 34405.1 hPa SW 5.1 km/h 7.7 km/h 55 % 0 mm
23:05 -5.7 °C -10.9 °C 34428.8 hPa SW 5.1 km/h 7.7 km/h 55 % 0 mm
23:10 -5.7 °C -11 °C 34428.8 hPa SW 5.1 km/h 7.7 km/h 55 % 0 mm
23:15 -5.8 °C -11.1 °C 34428.8 hPa SW 5.1 km/h 7.7 km/h 55 % 0 mm
23:20 -5.8 °C -11.1 °C 34395 hPa SW 5.1 km/h 7.7 km/h 55 % 0 mm
23:25 -5.9 °C -10.9 °C 34395 hPa SW 5.1 km/h 7.7 km/h 56 % 0 mm
23:30 -5.9 °C -11 °C 34395 hPa SW 5.1 km/h 7.7 km/h 56 % 0 mm
23:35 -6 °C -11.1 °C 34395 hPa SW 5.1 km/h 7.7 km/h 56 % 0 mm
23:40 -6.1 °C -11 °C 34395 hPa SW 5.1 km/h 7.7 km/h 57 % 0 mm
23:45 -6.1 °C -10.9 °C 34395 hPa SW 5.1 km/h 7.7 km/h 58 % 0 mm
23:50 -6.2 °C -10.8 °C 34395 hPa SW 6.8 km/h 7.6 km/h 59 % 0 mm
23:55 -6.2 °C -10.8 °C 34395 hPa SW 5.1 km/h 7.7 km/h 59 % 0 mm
Meteo Sesrovires
Elogis d' Weather Underground - 4 mb

Guio original per  Jim McMurry - jmcmurry@mwt.net Adaptat per a la plantilla per  Wim van der Kuil - Leuven-Template.eu

Trobareu la nostra informacio del temps tambe a:

Weather Underground

AWEKAS